createdAt,value
2023-01-30T00:00:03.022Z,67.95
2023-01-30T00:01:03.000Z,73.58
2023-01-30T00:02:02.956Z,75.12
2023-01-30T00:03:02.899Z,69.42
2023-01-30T00:04:02.871Z,66.88
2023-01-30T00:05:02.836Z,71.68
2023-01-30T00:06:02.769Z,73.50
2023-01-30T00:07:02.727Z,74.79
2023-01-30T00:08:02.694Z,75.47
2023-01-30T00:09:02.646Z,63.43
2023-01-30T00:10:02.613Z,60.46
2023-01-30T00:11:02.569Z,66.08
2023-01-30T00:12:02.548Z,68.51
2023-01-30T00:13:02.490Z,69.56
2023-01-30T00:14:02.472Z,75.80
2023-01-30T00:15:02.411Z,62.64
2023-01-30T00:16:02.441Z,65.05
2023-01-30T00:17:02.324Z,64.47
2023-01-30T00:18:02.290Z,69.09
2023-01-30T00:19:02.235Z,74.52
2023-01-30T00:20:02.317Z,67.50
2023-01-30T00:21:02.153Z,65.98
2023-01-30T00:22:02.118Z,63.94
2023-01-30T00:23:02.077Z,69.58
2023-01-30T00:24:02.074Z,70.65
2023-01-30T00:25:02.116Z,69.92
2023-01-30T00:26:01.930Z,64.91
2023-01-30T00:27:01.892Z,64.53
2023-01-30T00:28:01.946Z,69.70
2023-01-30T00:29:01.815Z,68.32
2023-01-30T00:30:03.597Z,74.13
2023-01-30T00:31:01.771Z,70.54
2023-01-30T00:32:01.697Z,64.55
2023-01-30T00:33:01.637Z,66.99
2023-01-30T00:34:01.598Z,72.73
2023-01-30T00:35:01.587Z,72.04
2023-01-30T00:36:01.528Z,74.34
2023-01-30T00:37:08.124Z,65.69
2023-01-30T00:38:02.494Z,65.78
2023-01-30T00:39:01.386Z,65.85
2023-01-30T00:40:01.340Z,67.44
2023-01-30T00:41:01.312Z,70.75
2023-01-30T00:42:01.265Z,72.98
2023-01-30T00:43:01.230Z,64.56
2023-01-30T00:44:01.182Z,67.52
2023-01-30T00:45:01.161Z,66.03
2023-01-30T00:46:01.163Z,67.08
2023-01-30T00:47:01.047Z,70.04
2023-01-30T00:48:01.004Z,70.49
2023-01-30T00:49:00.965Z,60.63
2023-01-30T00:50:00.929Z,67.73
2023-01-30T00:51:00.884Z,67.36
2023-01-30T00:52:00.838Z,67.66
2023-01-30T00:53:00.810Z,68.53
2023-01-30T00:54:00.776Z,66.82
2023-01-30T00:55:00.724Z,61.92
2023-01-30T00:56:00.671Z,63.04
2023-01-30T00:57:00.622Z,66.85
2023-01-30T00:58:00.587Z,72.01
2023-01-30T00:59:00.533Z,72.23
2023-01-30T01:00:00.483Z,63.62
2023-01-30T01:01:00.461Z,65.68
2023-01-30T01:02:00.536Z,66.22
2023-01-30T01:03:00.460Z,66.01
2023-01-30T01:04:00.306Z,68.55
2023-01-30T01:05:00.284Z,65.72
2023-01-30T01:06:00.214Z,62.95
2023-01-30T01:07:00.181Z,63.04
2023-01-30T01:08:00.121Z,69.09
2023-01-30T01:09:00.136Z,72.69
2023-01-30T01:10:00.042Z,71.96
2023-01-30T01:10:59.989Z,63.00
2023-01-30T01:11:59.952Z,57.05
2023-01-30T01:12:59.918Z,61.55
2023-01-30T01:13:59.863Z,65.92
2023-01-30T01:14:59.814Z,68.56
2023-01-30T01:15:59.799Z,65.22
2023-01-30T01:16:59.710Z,52.66
2023-01-30T01:17:59.661Z,52.34
2023-01-30T01:18:59.623Z,59.59
2023-01-30T01:19:59.592Z,59.74
2023-01-30T01:20:59.527Z,60.71
2023-01-30T01:21:59.496Z,57.20
2023-01-30T01:22:59.437Z,60.05
2023-01-30T01:23:59.403Z,62.26
2023-01-30T01:24:59.355Z,66.16
2023-01-30T01:25:59.327Z,69.51
2023-01-30T01:26:59.262Z,68.40
2023-01-30T01:27:59.226Z,58.40
2023-01-30T01:28:59.185Z,58.21
2023-01-30T01:30:01.166Z,58.65
2023-01-30T01:30:59.120Z,68.11
2023-01-30T01:31:59.194Z,70.53
2023-01-30T01:32:59.008Z,67.04
2023-01-30T01:33:58.966Z,61.65
2023-01-30T01:34:58.970Z,61.98
2023-01-30T01:35:58.901Z,62.49
2023-01-30T01:36:58.833Z,64.77
2023-01-30T01:37:58.797Z,66.70
2023-01-30T01:38:58.746Z,61.06
2023-01-30T01:39:58.703Z,55.45
2023-01-30T01:40:58.663Z,56.75
2023-01-30T01:41:58.629Z,61.56
2023-01-30T01:42:58.572Z,64.44
2023-01-30T01:43:58.525Z,59.51
2023-01-30T01:44:58.477Z,56.32
2023-01-30T01:45:58.464Z,56.13
2023-01-30T01:46:58.397Z,62.47
2023-01-30T01:47:58.335Z,64.90
2023-01-30T01:48:58.302Z,67.67
2023-01-30T01:49:58.241Z,58.55
2023-01-30T01:50:58.214Z,57.02
2023-01-30T01:51:58.163Z,56.05
2023-01-30T01:52:58.106Z,61.30
2023-01-30T01:53:58.049Z,65.29
2023-01-30T01:54:58.003Z,66.29
2023-01-30T01:55:57.966Z,56.39
2023-01-30T01:56:57.919Z,58.27
2023-01-30T01:57:57.877Z,61.06
2023-01-30T01:58:57.827Z,61.72
2023-01-30T01:59:57.771Z,62.14
2023-01-30T02:00:57.776Z,64.26
2023-01-30T02:01:57.704Z,56.27
2023-01-30T02:02:57.645Z,54.67
2023-01-30T02:03:57.580Z,60.39
2023-01-30T02:04:57.542Z,65.01
2023-01-30T02:05:57.479Z,61.99
2023-01-30T02:06:57.432Z,51.32
2023-01-30T02:07:57.378Z,51.73
2023-01-30T02:08:57.322Z,52.58
2023-01-30T02:09:57.264Z,57.58
2023-01-30T02:10:57.213Z,61.18
2023-01-30T02:11:57.150Z,59.96
2023-01-30T02:12:57.105Z,56.45
2023-01-30T02:13:57.039Z,58.74
2023-01-30T02:14:56.992Z,65.47
2023-01-30T02:15:56.951Z,66.64
2023-01-30T02:16:56.888Z,66.37
2023-01-30T02:17:56.850Z,63.85
2023-01-30T02:18:56.785Z,57.44
2023-01-30T02:19:56.739Z,63.39
2023-01-30T02:20:56.679Z,67.25
2023-01-30T02:21:56.627Z,68.26
2023-01-30T02:22:56.576Z,71.07
2023-01-30T02:23:56.535Z,61.30
2023-01-30T02:24:56.481Z,57.91
2023-01-30T02:25:56.689Z,58.88
2023-01-30T02:26:56.385Z,65.70
2023-01-30T02:27:56.326Z,65.48
2023-01-30T02:28:56.280Z,66.01
2023-01-30T02:29:56.237Z,56.65
2023-01-30T02:30:56.272Z,60.04
2023-01-30T02:31:56.140Z,61.05
2023-01-30T02:32:56.088Z,63.03
2023-01-30T02:33:56.030Z,66.85
2023-01-30T02:34:55.984Z,61.80
2023-01-30T02:35:55.941Z,62.17
2023-01-30T02:36:55.890Z,64.22
2023-01-30T02:37:55.848Z,66.50
2023-01-30T02:38:55.810Z,69.46
2023-01-30T02:39:55.764Z,69.19
2023-01-30T02:40:55.724Z,62.68
2023-01-30T02:41:55.674Z,64.38
2023-01-30T02:42:55.618Z,66.90
2023-01-30T02:43:55.567Z,66.88
2023-01-30T02:44:55.522Z,67.04
2023-01-30T02:45:55.491Z,66.29
2023-01-30T02:46:55.432Z,54.48
2023-01-30T03:45:52.386Z,63.06
2023-01-30T03:46:52.284Z,59.95
2023-01-30T03:47:52.253Z,53.69
2023-01-30T03:48:52.205Z,52.38
2023-01-30T03:49:52.164Z,55.60
2023-01-30T03:50:52.121Z,56.55
2023-01-30T03:51:52.068Z,63.95
2023-01-30T03:52:52.037Z,63.94
2023-01-30T03:53:51.991Z,56.81
2023-01-30T03:54:51.949Z,49.76
2023-01-30T03:55:51.918Z,54.34
2023-01-30T03:56:51.871Z,58.81
2023-01-30T03:57:51.819Z,58.46
2023-01-30T03:58:51.786Z,62.84
2023-01-30T03:59:51.725Z,55.39
2023-01-30T04:00:51.699Z,51.67
2023-01-30T04:01:51.641Z,55.97
2023-01-30T04:02:51.600Z,58.87
2023-01-30T04:03:51.553Z,62.11
2023-01-30T04:04:51.521Z,61.85
2023-01-30T04:05:51.482Z,55.98
2023-01-30T04:06:51.420Z,58.00
2023-01-30T04:07:51.392Z,57.57
2023-01-30T04:08:51.328Z,61.41
2023-01-30T04:09:51.298Z,63.79
2023-01-30T04:10:51.259Z,64.63
2023-01-30T04:11:51.191Z,57.20
2023-01-30T04:12:51.149Z,64.05
2023-01-30T04:13:51.101Z,59.56
2023-01-30T04:14:51.059Z,59.86
2023-01-30T04:15:51.020Z,60.29
2023-01-30T04:16:50.991Z,61.86
2023-01-30T04:17:50.975Z,55.79
2023-01-30T04:18:50.910Z,55.90
2023-01-30T04:19:50.956Z,58.68
2023-01-30T04:20:50.787Z,59.82
2023-01-30T04:21:50.770Z,62.95
2023-01-30T04:22:50.702Z,61.75
2023-01-30T04:23:50.661Z,52.73
2023-01-30T04:24:50.594Z,56.68
2023-01-30T04:25:50.540Z,54.20
2023-01-30T04:26:50.499Z,56.55
2023-01-30T04:27:50.440Z,64.85
2023-01-30T04:28:50.405Z,58.34
2023-01-30T04:29:50.343Z,54.84
2023-01-30T04:30:50.315Z,54.40
2023-01-30T04:31:50.259Z,57.56
2023-01-30T04:32:50.207Z,57.32
2023-01-30T04:33:50.157Z,60.37
2023-01-30T04:34:50.109Z,61.30
2023-01-30T04:35:50.057Z,55.95
2023-01-30T04:36:50.030Z,55.69
2023-01-30T04:37:49.983Z,56.33
2023-01-30T04:38:49.920Z,60.87
2023-01-30T04:39:49.892Z,62.55
2023-01-30T04:40:49.826Z,60.23
2023-01-30T04:41:49.786Z,55.06
2023-01-30T04:42:49.745Z,58.85
2023-01-30T04:43:49.689Z,61.14
2023-01-30T04:44:49.643Z,63.80
2023-01-30T04:45:49.592Z,63.90
2023-01-30T04:46:49.542Z,62.71
2023-01-30T04:47:49.562Z,57.23
2023-01-30T04:48:49.458Z,58.65
2023-01-30T04:49:49.403Z,62.49
2023-01-30T04:50:49.343Z,62.98
2023-01-30T04:51:49.306Z,66.25
2023-01-30T04:52:49.255Z,61.20
2023-01-30T04:53:49.195Z,56.98
2023-01-30T04:54:49.141Z,57.33
2023-01-30T04:55:49.091Z,61.36
2023-01-30T04:56:49.045Z,66.32
2023-01-30T04:57:48.997Z,63.51
2023-01-30T04:58:48.937Z,57.68
2023-01-30T04:59:48.896Z,49.26
2023-01-30T05:00:48.893Z,49.60
2023-01-30T05:01:48.809Z,51.16
2023-01-30T05:02:48.730Z,53.85
2023-01-30T05:03:48.698Z,57.96
2023-01-30T05:04:48.629Z,60.21
2023-01-30T05:05:48.585Z,59.82
2023-01-30T05:06:48.537Z,63.66
2023-01-30T05:07:48.494Z,64.14
2023-01-30T05:08:48.441Z,65.64
2023-01-30T05:09:48.393Z,68.18
2023-01-30T05:10:48.338Z,61.86
2023-01-30T05:11:48.288Z,62.94
2023-01-30T05:12:48.274Z,69.63
2023-01-30T05:13:48.194Z,66.09
2023-01-30T05:14:48.153Z,65.53
2023-01-30T05:15:48.102Z,68.32
2023-01-30T05:16:48.082Z,64.93
2023-01-30T05:17:48.004Z,65.03
2023-01-30T05:18:47.970Z,67.53
2023-01-30T05:19:47.908Z,67.79
2023-01-30T05:20:47.874Z,66.69
2023-01-30T05:21:47.838Z,67.46
2023-01-30T05:22:47.755Z,69.84
2023-01-30T05:23:47.708Z,69.78
2023-01-30T05:24:47.665Z,70.46
2023-01-30T05:25:47.620Z,74.35
2023-01-30T05:26:47.601Z,73.23
2023-01-30T05:27:47.515Z,73.52
2023-01-30T05:28:47.472Z,76.31
2023-01-30T05:29:47.419Z,74.01
2023-01-30T05:30:47.595Z,78.17
2023-01-30T05:31:47.341Z,76.22
2023-01-30T05:32:47.269Z,76.32
2023-01-30T05:33:47.207Z,78.22
2023-01-30T05:34:47.151Z,73.13
2023-01-30T05:35:47.103Z,72.70
2023-01-30T05:36:47.043Z,72.59
2023-01-30T05:37:47.007Z,72.50
2023-01-30T05:38:46.943Z,74.27
2023-01-30T05:39:46.900Z,71.50
2023-01-30T05:40:46.838Z,69.11
2023-01-30T05:41:46.782Z,69.42
2023-01-30T05:42:46.738Z,70.33
2023-01-30T05:43:46.676Z,71.71
2023-01-30T05:44:46.620Z,73.97
2023-01-30T05:45:46.577Z,72.87
2023-01-30T05:46:46.550Z,70.08
2023-01-30T05:47:46.476Z,72.08
2023-01-30T05:48:46.433Z,76.37
2023-01-30T05:49:46.406Z,74.56
2023-01-30T05:50:46.328Z,75.03
2023-01-30T05:51:46.290Z,74.88
2023-01-30T05:52:46.223Z,72.39
2023-01-30T05:53:46.187Z,75.32
2023-01-30T05:54:46.188Z,75.87
2023-01-30T05:55:46.079Z,77.28
2023-01-30T05:56:46.015Z,77.52
2023-01-30T05:57:45.978Z,77.52
2023-01-30T05:58:45.915Z,73.48
2023-01-30T05:59:45.879Z,77.64
2023-01-30T06:00:45.813Z,77.64
2023-01-30T06:01:45.753Z,74.15
2023-01-30T06:02:45.727Z,76.14
2023-01-30T06:03:45.669Z,71.73
2023-01-30T06:04:45.596Z,74.92
2023-01-30T06:05:45.555Z,73.34
2023-01-30T06:06:45.503Z,77.14
2023-01-30T06:07:45.453Z,76.32
2023-01-30T06:08:45.424Z,76.03
2023-01-30T06:09:45.389Z,74.06
2023-01-30T06:10:45.317Z,73.60
2023-01-30T06:11:45.274Z,69.25
2023-01-30T06:12:45.226Z,73.62
2023-01-30T06:13:45.159Z,72.54
2023-01-30T06:14:45.122Z,70.90
2023-01-30T06:15:45.078Z,70.92
2023-01-30T06:16:45.039Z,70.06
2023-01-30T06:17:45.782Z,74.92
2023-01-30T06:18:44.924Z,71.65
2023-01-30T06:19:44.860Z,72.61
2023-01-30T06:20:44.824Z,71.59
2023-01-30T06:21:44.769Z,69.50
2023-01-30T06:22:44.704Z,69.73
2023-01-30T06:23:44.725Z,70.32
2023-01-30T06:24:44.603Z,69.53
2023-01-30T06:25:44.559Z,70.23
2023-01-30T06:26:44.544Z,69.62
2023-01-30T06:27:44.527Z,67.35
2023-01-30T06:28:44.410Z,67.84
2023-01-30T06:29:44.362Z,66.00
2023-01-30T06:30:44.416Z,71.45
2023-01-30T06:31:44.301Z,71.61
2023-01-30T06:32:44.201Z,72.54
2023-01-30T06:33:44.187Z,70.58
2023-01-30T06:34:44.095Z,71.52
2023-01-30T06:35:44.047Z,72.01
2023-01-30T06:36:43.993Z,72.87
2023-01-30T06:37:43.973Z,68.18
2023-01-30T06:38:43.891Z,68.03
2023-01-30T06:39:43.840Z,64.42
2023-01-30T06:40:43.792Z,71.50
2023-01-30T06:41:43.741Z,75.60
2023-01-30T06:42:43.672Z,76.73
2023-01-30T06:43:43.627Z,71.94
2023-01-30T06:44:43.595Z,66.38
2023-01-30T06:45:43.526Z,78.49
2023-01-30T06:46:43.467Z,82.60
2023-01-30T06:47:43.406Z,85.89
2023-01-30T06:48:43.346Z,96.20
2023-01-30T06:49:43.302Z,100.11
2023-01-30T06:50:43.244Z,109.33
2023-01-30T06:51:43.176Z,114.57
2023-01-30T06:52:43.130Z,121.54
2023-01-30T06:53:43.070Z,129.64
2023-01-30T06:54:43.015Z,173.05
2023-01-30T06:55:42.981Z,166.14
2023-01-30T06:56:42.907Z,164.10
2023-01-30T06:57:42.871Z,168.61
2023-01-30T06:58:42.784Z,177.31
2023-01-30T06:59:42.744Z,183.77
2023-01-30T07:00:42.679Z,184.62
2023-01-30T07:01:42.667Z,184.95
2023-01-30T07:02:42.578Z,185.84
2023-01-30T07:03:42.625Z,188.32
2023-01-30T07:04:42.450Z,195.18
2023-01-30T07:05:42.427Z,215.90
2023-01-30T07:06:42.318Z,224.44
2023-01-30T07:07:42.270Z,229.82
2023-01-30T07:08:42.206Z,228.42
2023-01-30T07:09:42.186Z,226.56
2023-01-30T07:10:42.150Z,232.55
2023-01-30T07:11:42.052Z,235.63
2023-01-30T07:12:41.983Z,235.85
2023-01-30T07:13:41.962Z,236.86
2023-01-30T07:14:42.423Z,236.22
2023-01-30T07:15:41.776Z,235.28
2023-01-30T07:16:41.790Z,235.48
2023-01-30T07:17:41.661Z,235.69
2023-01-30T07:18:41.586Z,237.04
2023-01-30T07:19:41.539Z,235.69
2023-01-30T07:20:41.483Z,236.84
2023-01-30T07:21:41.497Z,237.55
2023-01-30T07:22:41.352Z,239.85
2023-01-30T07:23:41.288Z,240.16
2023-01-30T07:24:41.224Z,240.87
2023-01-30T07:25:41.211Z,237.14
2023-01-30T07:26:41.148Z,240.97
2023-01-30T07:27:41.097Z,247.10
2023-01-30T07:28:40.993Z,258.39
2023-01-30T07:29:40.926Z,248.37
2023-01-30T07:30:40.886Z,243.29
2023-01-30T07:31:40.874Z,238.55
2023-01-30T07:32:40.742Z,227.24
2023-01-30T07:33:40.683Z,222.73
2023-01-30T07:34:40.613Z,221.50
2023-01-30T07:35:40.641Z,218.54
2023-01-30T07:36:40.519Z,213.99
2023-01-30T07:37:40.448Z,212.04
2023-01-30T07:38:40.392Z,212.55
2023-01-30T07:39:40.308Z,209.49
2023-01-30T07:40:40.253Z,207.18
2023-01-30T07:41:40.208Z,206.12
2023-01-30T07:42:40.140Z,211.68
2023-01-30T07:43:40.129Z,218.38
2023-01-30T07:44:40.029Z,213.25
2023-01-30T07:45:39.947Z,213.89
2023-01-30T07:46:39.914Z,218.73
2023-01-30T07:47:39.830Z,224.46
2023-01-30T07:48:39.757Z,232.45
2023-01-30T07:49:39.696Z,250.65
2023-01-30T07:50:39.641Z,248.60
2023-01-30T07:51:39.561Z,243.70
2023-01-30T07:52:39.514Z,241.48
2023-01-30T07:53:39.481Z,235.14
2023-01-30T07:54:39.376Z,234.79
2023-01-30T07:55:39.325Z,235.70
2023-01-30T07:56:39.282Z,236.97
2023-01-30T07:57:39.226Z,234.79
2023-01-30T07:58:39.112Z,235.12
2023-01-30T07:59:39.045Z,235.32
2023-01-30T08:00:38.978Z,235.98
2023-01-30T08:01:38.918Z,241.24
2023-01-30T08:02:38.878Z,248.86
2023-01-30T08:03:38.791Z,255.41
2023-01-30T08:04:38.790Z,247.96
2023-01-30T08:05:38.682Z,247.53
2023-01-30T08:06:38.633Z,244.59
2023-01-30T08:07:38.544Z,245.26
2023-01-30T08:08:38.480Z,244.52
2023-01-30T08:09:38.419Z,247.17
2023-01-30T08:10:38.386Z,244.89
2023-01-30T08:11:38.297Z,240.10
2023-01-30T08:12:38.227Z,244.22
2023-01-30T08:13:38.160Z,244.90
2023-01-30T08:14:38.115Z,246.61
2023-01-30T08:15:38.081Z,248.11
2023-01-30T08:16:38.048Z,244.25
2023-01-30T08:17:37.915Z,238.34
2023-01-30T08:18:37.851Z,238.38
2023-01-30T08:19:37.780Z,239.35
2023-01-30T08:20:37.723Z,240.90
2023-01-30T08:21:37.662Z,239.74
2023-01-30T08:22:37.595Z,230.52
2023-01-30T08:23:37.538Z,225.91
2023-01-30T08:24:37.460Z,226.87
2023-01-30T08:25:37.421Z,233.98
2023-01-30T08:26:37.423Z,237.86
2023-01-30T08:27:37.294Z,238.53
2023-01-30T08:28:37.227Z,233.55
2023-01-30T08:29:37.199Z,230.88
2023-01-30T08:30:37.142Z,227.93
2023-01-30T08:31:37.116Z,231.95
2023-01-30T08:32:36.986Z,236.60
2023-01-30T08:33:36.922Z,234.66
2023-01-30T08:34:36.847Z,226.00
2023-01-30T08:35:36.792Z,221.24
2023-01-30T08:36:36.727Z,222.96
2023-01-30T08:37:36.666Z,225.78
2023-01-30T08:38:36.695Z,231.98
2023-01-30T08:39:37.360Z,256.32
2023-01-30T08:40:36.464Z,237.70
2023-01-30T08:41:36.401Z,239.78
2023-01-30T08:42:36.329Z,250.00
2023-01-30T08:43:36.268Z,250.00
2023-01-30T08:44:36.365Z,249.58
2023-01-30T08:45:36.149Z,247.83
2023-01-30T08:46:36.088Z,238.84
2023-01-30T08:47:36.016Z,234.89
2023-01-30T08:48:47.667Z,230.98
2023-01-30T08:49:36.895Z,231.25
2023-01-30T08:50:35.816Z,232.10
2023-01-30T08:51:35.752Z,233.66
2023-01-30T08:52:35.686Z,234.52
2023-01-30T08:53:35.617Z,231.42
2023-01-30T08:54:35.551Z,229.66
2023-01-30T08:55:35.482Z,230.13
2023-01-30T08:56:35.415Z,231.94
2023-01-30T09:40:32.455Z,158.36
2023-01-30T09:52:31.615Z,141.67
2023-01-30T09:53:31.550Z,147.33
2023-01-30T09:54:31.483Z,143.74
2023-01-30T09:55:31.406Z,150.07
2023-01-30T09:56:31.345Z,156.37
2023-01-30T09:57:31.281Z,149.86
2023-01-30T09:58:31.206Z,132.23
2023-01-30T09:59:31.139Z,131.02
2023-01-30T10:00:31.085Z,128.85
2023-01-30T10:01:31.015Z,140.60
2023-01-30T10:02:30.937Z,144.82
2023-01-30T10:03:30.918Z,136.53
2023-01-30T10:04:30.927Z,118.69
2023-01-30T10:05:30.722Z,117.54
2023-01-30T10:06:30.656Z,125.21
2023-01-30T10:07:30.601Z,136.89
2023-01-30T10:08:30.526Z,136.43
2023-01-30T10:09:30.450Z,118.61
2023-01-30T10:10:30.478Z,119.81
2023-01-30T10:11:30.335Z,117.24
2023-01-30T10:12:30.255Z,127.28
2023-01-30T10:13:30.194Z,132.61
2023-01-30T10:14:30.135Z,123.75
2023-01-30T10:15:30.050Z,109.65
2023-01-30T10:17:32.435Z,115.26
2023-01-30T10:18:29.874Z,124.28
2023-01-30T10:19:36.029Z,117.72
2023-01-30T10:20:30.718Z,122.06
2023-01-30T10:21:29.651Z,109.61
2023-01-30T10:24:29.453Z,122.28
2023-01-30T10:25:29.396Z,116.59
2023-01-30T10:26:29.369Z,105.64
2023-01-30T10:27:29.250Z,96.05
2023-01-30T10:28:29.195Z,112.39
2023-01-30T10:29:29.147Z,117.22
2023-01-30T10:30:29.072Z,114.81
2023-01-30T10:31:29.005Z,109.78
2023-01-30T10:32:28.949Z,105.94
2023-01-30T10:33:28.892Z,111.88
2023-01-30T10:34:28.788Z,114.10
2023-01-30T10:35:28.720Z,112.47
2023-01-30T10:36:28.652Z,118.59
2023-01-30T10:37:28.617Z,112.05
2023-01-30T10:38:28.516Z,118.55
2023-01-30T10:39:28.456Z,114.26
2023-01-30T10:40:28.405Z,117.62
2023-01-30T10:41:28.303Z,114.93
2023-01-30T10:42:28.241Z,114.66
2023-01-30T10:43:28.192Z,116.61
2023-01-30T10:44:28.106Z,104.87
2023-01-30T10:45:28.039Z,108.00
2023-01-30T10:46:28.033Z,110.40
2023-01-30T10:47:29.796Z,114.91
2023-01-30T10:48:42.608Z,115.28
2023-01-30T10:49:28.740Z,115.38
2023-01-30T10:50:27.673Z,117.35
2023-01-30T10:51:27.616Z,119.33
2023-01-30T10:52:27.520Z,121.81
2023-01-30T10:53:27.435Z,126.38
2023-01-30T10:54:27.379Z,128.60
2023-01-30T10:55:36.825Z,137.38
2023-01-30T10:56:28.238Z,137.93
2023-01-30T10:57:27.167Z,138.18
2023-01-30T10:58:27.099Z,140.76
2023-01-30T10:59:27.051Z,143.50
2023-01-30T11:00:26.952Z,154.71
2023-01-30T11:01:26.934Z,161.50
2023-01-30T11:02:26.847Z,164.96
2023-01-30T11:03:26.743Z,165.32
2023-01-30T11:04:26.668Z,165.94
2023-01-30T11:05:26.605Z,167.94
2023-01-30T11:06:26.530Z,170.82
2023-01-30T11:07:26.451Z,183.86
2023-01-30T11:08:26.384Z,205.73
2023-01-30T11:09:26.300Z,205.05
2023-01-30T11:10:26.233Z,202.69
2023-01-30T11:11:26.156Z,208.76
2023-01-30T11:12:26.098Z,208.42
2023-01-30T11:13:26.033Z,214.75
2023-01-30T11:14:25.962Z,211.58
2023-01-30T11:15:25.954Z,210.78
2023-01-30T11:16:25.869Z,211.76
2023-01-30T11:17:25.752Z,210.73
2023-01-30T11:19:26.608Z,211.02
2023-01-30T11:20:25.527Z,211.66
2023-01-30T11:21:34.896Z,212.44
2023-01-30T11:22:26.391Z,211.18
2023-01-30T11:23:25.326Z,211.91
2023-01-30T11:24:25.228Z,212.90
2023-01-30T11:25:25.420Z,215.75
2023-01-30T11:26:32.035Z,225.08
2023-01-30T11:27:26.007Z,211.37
2023-01-30T11:28:24.935Z,218.77
2023-01-30T11:29:24.869Z,238.00
2023-01-30T11:30:24.793Z,246.94
2023-01-30T11:31:40.018Z,257.80
2023-01-30T11:32:25.780Z,212.34
2023-01-30T11:33:24.567Z,215.93
2023-01-30T11:34:24.500Z,219.50
2023-01-30T11:35:24.529Z,224.85
2023-01-30T11:36:24.348Z,230.81
2023-01-30T11:37:24.283Z,233.05
2023-01-30T11:38:24.193Z,232.37
2023-01-30T11:39:24.134Z,229.84
2023-01-30T11:40:24.053Z,227.76
2023-01-30T11:41:23.982Z,226.66
2023-01-30T11:42:23.909Z,225.58
2023-01-30T11:43:23.832Z,215.51
2023-01-30T11:44:23.778Z,207.40
2023-01-30T11:45:23.704Z,202.11
2023-01-30T11:46:23.634Z,205.04
2023-01-30T11:47:23.545Z,199.34
2023-01-30T11:48:34.104Z,192.45
2023-01-30T11:49:46.242Z,192.55
2023-01-30T11:50:24.382Z,192.58
2023-01-30T11:51:23.260Z,192.66
2023-01-30T11:52:23.205Z,195.95
2023-01-30T11:53:23.121Z,201.06
2023-01-30T11:54:23.063Z,198.17
2023-01-30T11:55:22.979Z,212.40
2023-01-30T11:56:22.917Z,208.62
2023-01-30T11:57:22.836Z,203.02
2023-01-30T11:58:22.760Z,202.73
2023-01-30T11:59:22.714Z,189.58
2023-01-30T12:00:22.633Z,182.89
2023-01-30T12:01:22.558Z,191.47
2023-01-30T12:02:22.579Z,188.93
2023-01-30T12:03:23.430Z,179.58
2023-01-30T12:04:22.368Z,181.46
2023-01-30T12:05:22.323Z,166.65
2023-01-30T12:06:22.252Z,152.53
2023-01-30T12:07:22.228Z,144.94
2023-01-30T12:08:40.268Z,136.88
2023-01-30T12:09:23.047Z,137.05
2023-01-30T12:10:21.980Z,137.54
2023-01-30T12:11:21.924Z,126.78
2023-01-30T12:12:21.838Z,129.83
2023-01-30T12:13:21.774Z,119.88
2023-01-30T12:14:21.710Z,110.97
2023-01-30T12:15:21.668Z,114.64
2023-01-30T12:16:21.612Z,103.62
2023-01-30T12:17:21.581Z,98.87
2023-01-30T12:18:21.450Z,100.37
2023-01-30T12:19:21.402Z,101.54
2023-01-30T12:20:21.563Z,109.15
2023-01-30T12:21:21.262Z,100.37
2023-01-30T12:22:21.217Z,89.51
2023-01-30T12:23:21.163Z,79.80
2023-01-30T12:24:21.056Z,78.70
2023-01-30T12:25:20.991Z,79.23
2023-01-30T12:26:20.976Z,80.68
2023-01-30T12:27:20.883Z,82.34
2023-01-30T12:28:20.797Z,73.80
2023-01-30T12:29:20.728Z,78.62
2023-01-30T12:30:20.963Z,80.02
2023-01-30T12:31:20.602Z,80.37
2023-01-30T12:32:20.561Z,74.35
2023-01-30T12:33:20.458Z,70.83
2023-01-30T12:34:24.263Z,66.88
2023-01-30T12:35:21.332Z,67.26
2023-01-30T12:36:20.269Z,68.70
2023-01-30T12:37:20.178Z,71.31
2023-01-30T12:38:20.124Z,67.25
2023-01-30T12:39:20.063Z,53.63
2023-01-30T12:40:19.979Z,58.68
2023-01-30T12:41:19.913Z,73.77
2023-01-30T12:42:22.767Z,67.95
2023-01-30T12:43:20.782Z,54.36
2023-01-30T12:44:19.722Z,49.22
2023-01-30T12:45:20.002Z,50.68
2023-01-30T12:46:19.629Z,59.82
2023-01-30T12:47:19.527Z,58.07
2023-01-30T12:48:19.468Z,38.38
2023-01-30T12:49:19.415Z,45.73
2023-01-30T12:50:19.339Z,34.89
2023-01-30T12:51:19.283Z,37.51
2023-01-30T12:52:19.216Z,46.42
2023-01-30T12:53:19.159Z,43.06
2023-01-30T12:54:20.344Z,32.31
2023-01-30T12:55:19.054Z,38.75
2023-01-30T12:56:18.982Z,43.11
2023-01-30T12:57:18.907Z,38.04
2023-01-30T12:58:18.826Z,35.61
2023-01-30T12:59:18.782Z,26.85
2023-01-30T13:00:19.046Z,26.09
2023-01-30T13:01:18.695Z,26.52
2023-01-30T13:02:18.628Z,35.17
2023-01-30T13:03:18.524Z,35.85
2023-01-30T13:04:18.453Z,25.40
2023-01-30T13:05:18.410Z,30.09
2023-01-30T13:06:18.389Z,32.84
2023-01-30T13:07:18.272Z,39.82
2023-01-30T13:08:18.217Z,40.27
2023-01-30T13:09:18.166Z,32.87
2023-01-30T13:10:18.640Z,31.34
2023-01-30T13:11:18.047Z,34.25
2023-01-30T13:12:17.977Z,45.14
2023-01-30T13:13:17.919Z,34.34
2023-01-30T13:14:17.861Z,28.85
2023-01-30T13:15:17.814Z,30.99
2023-01-30T13:16:17.779Z,37.37
2023-01-30T13:17:17.693Z,44.88
2023-01-30T13:18:17.639Z,47.66
2023-01-30T13:19:19.266Z,35.98
2023-01-30T13:20:17.937Z,47.35
2023-01-30T13:21:17.431Z,52.49
2023-01-30T13:22:17.367Z,52.64
2023-01-30T13:23:17.302Z,52.69
2023-01-30T13:24:17.233Z,56.54
2023-01-30T13:25:17.195Z,64.36
2023-01-30T13:26:17.171Z,73.28
2023-01-30T13:27:17.099Z,66.35
2023-01-30T13:28:17.007Z,74.73
2023-01-30T13:29:16.959Z,75.90
2023-01-30T13:30:17.197Z,74.46
2023-01-30T13:31:16.966Z,69.54
2023-01-30T13:32:16.913Z,69.18
2023-01-30T13:33:16.703Z,64.89
2023-01-30T13:34:16.636Z,76.13
2023-01-30T13:35:16.617Z,78.70
2023-01-30T13:36:16.536Z,80.26
2023-01-30T13:37:16.468Z,78.31
2023-01-30T13:38:16.402Z,83.32
2023-01-30T13:40:16.620Z,87.63
2023-01-30T13:41:16.224Z,87.97
2023-01-30T13:42:16.168Z,86.83
2023-01-30T13:43:16.118Z,86.48
2023-01-30T13:44:16.054Z,87.93
2023-01-30T13:45:16.004Z,88.57
2023-01-30T13:46:15.954Z,89.36
2023-01-30T13:47:15.920Z,89.75
2023-01-30T13:48:15.833Z,84.79
2023-01-30T13:49:15.781Z,89.95
2023-01-30T13:50:16.142Z,90.29
2023-01-30T13:51:15.667Z,91.16
2023-01-30T13:52:15.724Z,86.84
2023-01-30T13:53:15.551Z,90.83
2023-01-30T13:54:15.497Z,89.03
2023-01-30T13:55:15.491Z,91.55
2023-01-30T13:56:32.972Z,85.46
2023-01-30T13:57:16.336Z,85.84
2023-01-30T13:58:15.242Z,85.89
2023-01-30T13:59:15.202Z,86.60
2023-01-30T14:00:15.211Z,84.48
2023-01-30T14:01:15.112Z,91.70
2023-01-30T14:02:15.096Z,84.38
2023-01-30T14:03:14.941Z,87.59
2023-01-30T14:04:14.874Z,88.09
2023-01-30T14:05:14.839Z,82.81
2023-01-30T14:06:14.778Z,90.19
2023-01-30T14:07:14.752Z,87.83
2023-01-30T14:08:14.639Z,90.69
2023-01-30T14:09:14.573Z,91.23
2023-01-30T14:10:14.507Z,87.71
2023-01-30T14:11:14.454Z,89.96
2023-01-30T14:12:14.380Z,88.84
2023-01-30T14:13:14.349Z,89.45
2023-01-30T14:14:14.270Z,87.05
2023-01-30T14:15:14.215Z,83.17
2023-01-30T14:16:14.159Z,89.67
2023-01-30T14:17:14.107Z,85.56
2023-01-30T14:18:14.015Z,87.66
2023-01-30T14:19:13.976Z,85.62
2023-01-30T14:20:13.918Z,86.38
2023-01-30T14:21:13.836Z,84.75
2023-01-30T14:22:13.772Z,84.75
2023-01-30T14:23:13.744Z,88.56
2023-01-30T14:24:13.648Z,86.90
2023-01-30T14:25:13.587Z,87.96
2023-01-30T14:26:13.557Z,87.43
2023-01-30T14:27:13.478Z,83.11
2023-01-30T14:28:13.420Z,85.40
2023-01-30T14:29:13.346Z,82.84
2023-01-30T14:30:13.287Z,86.98
2023-01-30T14:31:13.349Z,86.48
2023-01-30T14:32:13.297Z,86.86
2023-01-30T14:33:13.113Z,85.51
2023-01-30T14:34:13.045Z,86.17
2023-01-30T14:35:12.984Z,85.49
2023-01-30T14:36:12.916Z,83.52
2023-01-30T14:37:12.867Z,85.28
2023-01-30T14:38:12.809Z,82.91
2023-01-30T14:39:12.745Z,82.27